createdAt,value
2023-04-18T00:00:29.339Z,97085.34
2023-04-18T00:03:34.791Z,97096.09
2023-04-18T00:06:39.897Z,97083.47
2023-04-18T00:09:44.839Z,97091.75
2023-04-18T00:12:49.390Z,97098.88
2023-04-18T00:15:54.208Z,97098.72
2023-04-18T00:19:02.357Z,97070.44
2023-04-18T00:22:07.110Z,97093.88
2023-04-18T00:25:11.656Z,97094.97
2023-04-18T00:28:16.122Z,97102.69
2023-04-18T00:31:20.635Z,97097.25
2023-04-18T00:34:25.200Z,97097.25
2023-04-18T00:37:31.381Z,97093.75
2023-04-18T00:40:36.280Z,97101.00
2023-04-18T00:43:42.224Z,97101.66
2023-04-18T00:46:47.189Z,97107.13
2023-04-18T00:49:51.763Z,97100.03
2023-04-18T00:52:56.732Z,97102.19
2023-04-18T00:56:04.383Z,97093.63
2023-04-18T00:59:10.190Z,97107.84
2023-04-18T01:02:14.703Z,97107.03
2023-04-18T01:05:21.209Z,97103.13
2023-04-18T01:08:26.083Z,97104.38
2023-04-18T01:11:30.588Z,97097.31
2023-04-18T01:17:55.352Z,97095.69
2023-04-18T01:21:00.347Z,97099.09
2023-04-18T01:24:09.383Z,97099.03
2023-04-18T01:27:14.242Z,97088.59
2023-04-18T01:30:18.646Z,97091.88
2023-04-18T01:33:23.421Z,97092.56
2023-04-18T01:36:27.974Z,97091.56
2023-04-18T01:39:32.405Z,97086.13
2023-04-18T01:42:36.971Z,97085.19
2023-04-18T01:45:41.409Z,97094.16
2023-04-18T01:48:46.668Z,97086.88
2023-04-18T01:51:51.164Z,97090.22
2023-04-18T01:54:56.990Z,97094.16
2023-04-18T01:58:01.491Z,97088.13
2023-04-18T02:01:06.036Z,97091.13
2023-04-18T02:04:10.674Z,97093.56
2023-04-18T02:07:16.100Z,97087.13
2023-04-18T02:10:21.071Z,97084.09
2023-04-18T02:13:26.931Z,97098.03
2023-04-18T02:16:31.534Z,97085.97
2023-04-18T02:19:36.114Z,97085.69
2023-04-18T02:22:43.058Z,97054.16
2023-04-18T02:25:47.594Z,97091.78
2023-04-18T02:28:55.663Z,97096.44
2023-04-18T02:32:00.183Z,97097.22
2023-04-18T02:35:05.049Z,97089.50
2023-04-18T02:38:09.616Z,97094.91
2023-04-18T02:41:17.327Z,97090.94
2023-04-18T02:44:21.914Z,97090.28
2023-04-18T02:47:26.615Z,97088.69
2023-04-18T02:50:32.026Z,97095.25
2023-04-18T02:53:36.558Z,97090.84
2023-04-18T02:56:42.816Z,97074.69
2023-04-18T02:59:56.364Z,97089.81
2023-04-18T03:03:04.026Z,97094.28
2023-04-18T03:06:17.102Z,97089.63
2023-04-18T03:09:21.854Z,97094.47
2023-04-18T03:12:32.553Z,97094.66
2023-04-18T03:15:38.023Z,97073.50
2023-04-18T03:18:43.710Z,97091.63
2023-04-18T03:21:48.365Z,97088.66
2023-04-18T03:24:53.298Z,97097.28
2023-04-18T03:28:01.166Z,97069.00
2023-04-18T03:31:06.427Z,97090.81
2023-04-18T03:34:14.190Z,97084.28
2023-04-18T03:37:18.994Z,97076.84
2023-04-18T03:40:28.348Z,97077.88
2023-04-18T03:43:38.215Z,97079.91
2023-04-18T03:46:44.309Z,97053.22
2023-04-18T03:49:49.646Z,97075.69
2023-04-18T03:52:55.026Z,97075.34
2023-04-18T03:55:59.680Z,97077.59
2023-04-18T03:59:18.513Z,97067.47
2023-04-18T04:02:27.007Z,97084.47
2023-04-18T04:05:31.595Z,97083.66
2023-04-18T04:08:36.758Z,97089.13
2023-04-18T04:11:41.510Z,97093.19
2023-04-18T04:14:48.907Z,97091.06
2023-04-18T04:17:53.678Z,97063.88
2023-04-18T04:20:59.274Z,97092.22
2023-04-18T04:24:19.060Z,97086.03
2023-04-18T04:27:26.854Z,97093.53
2023-04-18T04:30:31.703Z,97099.81
2023-04-18T04:33:38.825Z,97105.06
2023-04-18T04:36:48.493Z,97098.41
2023-04-18T04:39:53.240Z,97106.88
2023-04-18T04:43:15.349Z,97108.41
2023-04-18T04:46:23.086Z,97114.38
2023-04-18T04:49:28.104Z,97110.78
2023-04-18T04:52:32.696Z,97105.97
2023-04-18T04:55:39.258Z,97081.41
2023-04-18T04:58:44.706Z,97113.06
2023-04-18T05:02:01.154Z,97056.78
2023-04-18T05:05:05.958Z,97112.09
2023-04-18T05:08:10.795Z,97113.28
2023-04-18T05:11:15.998Z,97111.09
2023-04-18T05:14:20.842Z,97120.09
2023-04-18T05:17:25.338Z,97086.56
2023-04-18T05:20:29.849Z,97113.13
2023-04-18T05:23:37.251Z,97124.50
2023-04-18T05:26:42.543Z,97117.66
2023-04-18T05:29:48.473Z,97121.56
2023-04-18T05:32:53.001Z,97122.22
2023-04-18T05:35:58.923Z,97121.91
2023-04-18T05:39:04.066Z,97116.88
2023-04-18T05:42:08.567Z,97113.56
2023-04-18T05:45:13.214Z,97120.50
2023-04-18T05:48:18.026Z,97126.91
2023-04-18T05:51:22.804Z,97122.63
2023-04-18T05:54:27.476Z,97117.53
2023-04-18T05:57:32.124Z,97111.44
2023-04-18T06:00:36.991Z,97115.44
2023-04-18T06:03:42.259Z,97113.69
2023-04-18T06:06:47.983Z,97117.63
2023-04-18T06:09:53.941Z,97122.59
2023-04-18T06:12:58.387Z,97123.09
2023-04-18T06:16:03.632Z,97129.06
2023-04-18T06:19:09.943Z,97133.44
2023-04-18T06:22:14.436Z,97124.69
2023-04-18T06:25:19.025Z,97132.44
2023-04-18T06:28:23.738Z,97125.03
2023-04-18T06:31:28.347Z,97127.59
2023-04-18T06:34:33.048Z,97134.34
2023-04-18T06:37:37.921Z,97134.16
2023-04-18T06:40:42.357Z,97133.03
2023-04-18T06:44:14.597Z,97131.06
2023-04-18T06:47:11.551Z,97129.28
2023-04-18T06:50:16.364Z,97132.63
2023-04-18T06:53:20.940Z,97129.06
2023-04-18T06:56:26.096Z,97119.28
2023-04-18T06:59:30.680Z,97135.34
2023-04-18T07:02:37.219Z,97130.63
2023-04-18T07:05:41.811Z,97137.31
2023-04-18T07:08:46.356Z,97132.06
2023-04-18T07:11:52.474Z,97126.88
2023-04-18T07:14:57.291Z,97134.94
2023-04-18T07:18:01.868Z,97119.59
2023-04-18T07:21:09.494Z,97125.03
2023-04-18T07:24:14.404Z,97129.53
2023-04-18T07:27:19.937Z,97125.09
2023-04-18T07:30:24.431Z,97122.31
2023-04-18T07:33:31.785Z,97127.91
2023-04-18T07:36:36.296Z,97125.78
2023-04-18T07:39:41.281Z,97122.72
2023-04-18T07:42:45.972Z,97131.69
2023-04-18T07:45:52.012Z,97133.06
2023-04-18T07:48:56.549Z,97133.03
2023-04-18T07:52:00.956Z,97132.97
2023-04-18T07:55:05.973Z,97137.63
2023-04-18T07:58:10.524Z,97140.38
2023-04-18T08:01:18.126Z,97142.84
2023-04-18T08:04:22.712Z,97149.91
2023-04-18T08:07:27.349Z,97146.59
2023-04-18T08:10:31.868Z,97142.91
2023-04-18T08:13:36.364Z,97151.75
2023-04-18T08:16:40.913Z,97156.97
2023-04-18T08:19:46.040Z,97153.13
2023-04-18T08:26:01.832Z,97159.06
2023-04-18T08:29:06.469Z,97137.31
2023-04-18T08:32:11.118Z,97145.16
2023-04-18T08:35:16.110Z,97153.94
2023-04-18T08:38:21.055Z,97157.44
2023-04-18T08:41:26.727Z,97152.38
2023-04-18T08:44:31.286Z,97165.34
2023-04-18T08:47:35.870Z,97165.63
2023-04-18T08:50:41.514Z,97162.88
2023-04-18T08:53:48.280Z,97171.28
2023-04-18T08:57:16.639Z,97179.50
2023-04-18T09:00:22.705Z,97181.19
2023-04-18T09:03:40.110Z,97186.72
2023-04-18T09:06:53.567Z,97178.44
2023-04-18T09:09:58.144Z,97189.38
2023-04-18T09:13:04.233Z,97184.16
2023-04-18T09:16:08.866Z,97177.22
2023-04-18T09:19:18.437Z,97181.13
2023-04-18T09:22:23.282Z,97190.22
2023-04-18T09:25:36.043Z,97162.06
2023-04-18T09:28:41.200Z,97182.28
2023-04-18T09:32:01.746Z,97181.84
2023-04-18T09:35:06.578Z,97191.91
2023-04-18T09:38:11.006Z,97192.59
2023-04-18T09:41:18.336Z,97185.91
2023-04-18T09:44:24.601Z,97201.03
2023-04-18T09:47:29.691Z,97178.59
2023-04-18T09:50:35.571Z,97196.91
2023-04-18T09:53:44.535Z,97195.88
2023-04-18T09:56:51.705Z,97173.31
2023-04-18T10:00:03.667Z,97200.00
2023-04-18T10:03:13.415Z,97201.03
2023-04-18T10:06:18.123Z,97189.91
2023-04-18T10:09:23.062Z,97189.53
2023-04-18T10:12:27.583Z,97191.53
2023-04-18T10:15:32.916Z,97193.25
2023-04-18T10:18:37.541Z,97190.63
2023-04-18T10:21:51.429Z,97195.13
2023-04-18T10:24:56.986Z,97178.28
2023-04-18T10:28:02.870Z,97202.22
2023-04-18T10:31:07.833Z,97187.41
2023-04-18T10:34:17.429Z,97204.97
2023-04-18T10:37:21.986Z,97161.50
2023-04-18T10:40:34.242Z,97191.06
2023-04-18T10:44:08.456Z,97195.47
2023-04-18T10:47:18.333Z,97189.94
2023-04-18T10:50:23.006Z,97185.88
2023-04-18T10:53:27.514Z,97177.44
2023-04-18T10:56:32.069Z,97188.63
2023-04-18T10:59:42.317Z,97188.00
2023-04-18T11:02:53.623Z,97185.09
2023-04-18T11:06:02.843Z,97164.91
2023-04-18T11:09:13.593Z,97179.78
2023-04-18T11:12:18.184Z,97181.88
2023-04-18T11:15:25.131Z,97182.19
2023-04-18T11:18:42.011Z,97181.47
2023-04-18T11:21:46.861Z,97174.88
2023-04-18T11:24:51.306Z,97181.66
2023-04-18T11:27:59.430Z,97178.97
2023-04-18T11:31:03.988Z,97185.78
2023-04-18T11:34:08.450Z,97185.06
2023-04-18T11:37:16.001Z,97187.41
2023-04-18T11:40:20.751Z,97184.91
2023-04-18T11:43:25.669Z,97195.34
2023-04-18T11:46:39.633Z,97185.63
2023-04-18T11:49:45.937Z,97186.38
2023-04-18T11:52:52.311Z,97183.38
2023-04-18T11:55:56.846Z,97199.47
2023-04-18T11:59:08.958Z,97188.72
2023-04-18T12:02:16.530Z,97192.63
2023-04-18T12:05:38.175Z,97192.97
2023-04-18T12:08:43.255Z,97192.28
2023-04-18T12:12:01.609Z,97184.69
2023-04-18T12:15:14.541Z,97189.25
2023-04-18T12:18:22.318Z,97186.53
2023-04-18T12:21:26.798Z,97181.81
2023-04-18T12:24:32.070Z,97178.19
2023-04-18T12:28:03.539Z,97181.59
2023-04-18T12:31:08.168Z,97177.53
2023-04-18T12:34:13.644Z,97181.16
2023-04-18T12:37:18.306Z,97179.97
2023-04-18T12:40:23.632Z,97181.25
2023-04-18T12:43:28.166Z,97180.25
2023-04-18T12:46:32.778Z,97170.66
2023-04-18T12:49:39.206Z,97138.25
2023-04-18T12:52:44.737Z,97176.38
2023-04-18T12:55:49.429Z,97173.81
2023-04-18T12:58:54.157Z,97177.22
2023-04-18T13:01:58.718Z,97170.38
2023-04-18T13:05:07.065Z,97150.78
2023-04-18T13:08:17.582Z,97149.69
2023-04-18T13:11:22.669Z,97173.69
2023-04-18T13:14:27.157Z,97182.81
2023-04-18T13:17:32.631Z,97182.06
2023-04-18T13:20:37.262Z,97185.03
2023-04-18T13:23:42.223Z,97173.56
2023-04-18T13:26:46.988Z,97169.97
2023-04-18T13:29:51.571Z,97181.25
2023-04-18T13:32:56.635Z,97176.97
2023-04-18T13:36:01.523Z,97160.28
2023-04-18T13:39:06.084Z,97169.03
2023-04-18T13:42:10.727Z,97167.19
2023-04-18T13:45:15.582Z,97179.78
2023-04-18T13:48:20.039Z,97175.94
2023-04-18T13:51:24.701Z,97178.41
2023-04-18T13:54:31.572Z,97181.41
2023-04-18T13:57:37.250Z,97183.53
2023-04-18T14:00:41.809Z,97182.69
2023-04-18T14:03:47.508Z,97186.69
2023-04-18T14:06:52.216Z,97183.47
2023-04-18T14:09:56.652Z,97187.38
2023-04-18T14:13:01.568Z,97186.97
2023-04-18T14:16:06.569Z,97183.34
2023-04-18T14:19:13.177Z,97174.72
2023-04-18T14:22:17.906Z,97187.59
2023-04-18T14:25:22.397Z,97186.22
2023-04-18T14:28:27.240Z,97188.28
2023-04-18T14:31:31.787Z,97174.00
2023-04-18T14:34:37.395Z,97182.72
2023-04-18T14:37:43.409Z,97186.50
2023-04-18T14:40:48.082Z,97184.88
2023-04-18T14:43:52.630Z,97179.25
2023-04-18T14:46:57.162Z,97177.41
2023-04-18T14:50:01.656Z,97183.88
2023-04-18T14:53:06.651Z,97175.09
2023-04-18T14:56:13.601Z,97181.41
2023-04-18T14:59:18.206Z,97179.72
2023-04-18T15:02:23.009Z,97187.28
2023-04-18T15:05:27.805Z,97184.59
2023-04-18T15:08:32.975Z,97189.59
2023-04-18T15:11:38.019Z,97181.81
2023-04-18T15:14:42.438Z,97193.94
2023-04-18T15:17:47.011Z,97182.97
2023-04-18T15:20:51.676Z,97190.13
2023-04-18T15:23:57.216Z,97200.63
2023-04-18T15:27:01.870Z,97197.13
2023-04-18T15:30:08.148Z,97198.78
2023-04-18T15:33:13.615Z,97195.16
2023-04-18T15:36:18.082Z,97191.03
2023-04-18T15:39:23.590Z,97193.78
2023-04-18T15:42:30.082Z,97198.69
2023-04-18T15:45:34.530Z,97195.81
2023-04-18T15:48:39.083Z,97196.84
2023-04-18T15:51:43.516Z,97205.13
2023-04-18T15:54:48.006Z,97201.31
2023-04-18T15:57:52.431Z,97206.53
2023-04-18T16:00:58.680Z,97198.00
2023-04-18T16:04:03.414Z,97206.34
2023-04-18T16:07:08.762Z,97210.94
2023-04-18T16:10:15.157Z,97211.78
2023-04-18T16:13:20.096Z,97214.16
2023-04-18T16:16:24.734Z,97210.25
2023-04-18T16:19:30.985Z,97219.69
2023-04-18T16:22:36.117Z,97205.41
2023-04-18T16:25:40.725Z,97223.81
2023-04-18T16:28:45.433Z,97217.72
2023-04-18T16:31:51.621Z,97218.03
2023-04-18T16:34:56.320Z,97221.78
2023-04-18T16:38:00.925Z,97222.84
2023-04-18T16:41:07.141Z,97202.31
2023-04-18T16:44:11.766Z,97230.16
2023-04-18T16:47:16.287Z,97232.97
2023-04-18T16:50:22.456Z,97230.97
2023-04-18T16:53:27.006Z,97229.25
2023-04-18T16:56:31.528Z,97236.28
2023-04-18T16:59:36.291Z,97239.84
2023-04-18T17:02:43.181Z,97232.56
2023-04-18T17:05:47.797Z,97241.34
2023-04-18T17:08:53.460Z,97239.84
2023-04-18T17:11:58.502Z,97245.06
2023-04-18T17:15:03.691Z,97244.56
2023-04-18T17:18:08.201Z,97244.00
2023-04-18T17:21:12.847Z,97253.47
2023-04-18T17:24:18.704Z,97255.34
2023-04-18T17:27:23.211Z,97257.72
2023-04-18T17:30:28.614Z,97258.06
2023-04-18T17:33:33.108Z,97257.41
2023-04-18T17:36:37.586Z,97258.50
2023-04-18T17:39:42.083Z,97254.81
2023-04-18T17:42:46.589Z,97262.16
2023-04-18T17:45:51.033Z,97264.56
2023-04-18T17:48:55.588Z,97273.50
2023-04-18T17:52:00.793Z,97266.72
2023-04-18T17:55:05.788Z,97274.88
2023-04-18T17:58:10.392Z,97273.69
2023-04-18T18:01:16.824Z,97278.47
2023-04-18T18:04:23.072Z,97278.19
2023-04-18T18:07:31.039Z,97280.78
2023-04-18T18:10:36.054Z,97279.25
2023-04-18T18:13:40.468Z,97290.88
2023-04-18T18:16:45.383Z,97258.78
2023-04-18T18:19:49.851Z,97292.31
2023-04-18T18:22:54.952Z,97298.91
2023-04-18T18:26:00.694Z,97294.25
2023-04-18T18:29:10.998Z,97299.06
2023-04-18T18:32:15.463Z,97298.31
2023-04-18T18:35:19.997Z,97300.47
2023-04-18T18:38:24.599Z,97308.72
2023-04-18T18:41:29.022Z,97313.09
2023-04-18T18:44:33.763Z,97313.78
2023-04-18T18:47:40.306Z,97308.72
2023-04-18T18:50:44.941Z,97310.97
2023-04-18T18:53:50.097Z,97310.91
2023-04-18T18:56:54.634Z,97311.22
2023-04-18T18:59:59.042Z,97311.16
2023-04-18T19:03:03.940Z,97316.66
2023-04-18T19:06:08.536Z,97313.38
2023-04-18T19:09:13.205Z,97303.81
2023-04-18T19:12:17.899Z,97316.22
2023-04-18T19:15:22.786Z,97315.63
2023-04-18T19:18:27.614Z,97321.84
2023-04-18T19:21:32.267Z,97320.28
2023-04-18T19:24:36.731Z,97319.34
2023-04-18T19:27:42.506Z,97277.75
2023-04-18T19:30:47.077Z,97319.69
2023-04-18T19:33:51.501Z,97316.47
2023-04-18T19:36:56.052Z,97321.03
2023-04-18T19:40:00.699Z,97320.47
2023-04-18T19:43:05.241Z,97316.06
2023-04-18T19:46:09.720Z,97315.06
2023-04-18T19:49:16.267Z,97296.03
2023-04-18T19:52:20.958Z,97313.94
2023-04-18T19:55:25.479Z,97309.81
2023-04-18T19:58:45.343Z,97315.31
2023-04-18T20:01:49.793Z,97317.38
2023-04-18T20:04:54.462Z,97312.84
2023-04-18T20:07:59.104Z,97314.59
2023-04-18T20:11:10.593Z,97312.75
2023-04-18T20:14:15.178Z,97311.50
2023-04-18T20:17:19.720Z,97313.19
2023-04-18T20:20:24.195Z,97314.28
2023-04-18T20:23:28.670Z,97311.69
2023-04-18T20:26:33.193Z,97315.69
2023-04-18T20:29:38.137Z,97291.13
2023-04-18T20:32:42.715Z,97312.38
2023-04-18T20:35:47.244Z,97310.69
2023-04-18T20:38:51.639Z,97308.22
2023-04-18T20:41:57.495Z,97312.22
2023-04-18T20:45:03.102Z,97313.47
2023-04-18T20:48:09.535Z,97294.66
2023-04-18T20:51:14.094Z,97308.75
2023-04-18T20:54:18.696Z,97310.31
2023-04-18T20:57:23.168Z,97310.81
2023-04-18T21:00:28.253Z,97308.25
2023-04-18T21:03:34.236Z,97299.84
2023-04-18T21:06:38.946Z,97306.63
2023-04-18T21:09:43.363Z,97304.72
2023-04-18T21:12:47.895Z,97309.41
2023-04-18T21:15:52.698Z,97301.44
2023-04-18T21:18:57.154Z,97303.50
2023-04-18T21:22:01.762Z,97296.28
2023-04-18T21:25:07.347Z,97292.75
2023-04-18T21:28:12.392Z,97307.09
2023-04-18T21:31:16.907Z,97307.97
2023-04-18T21:34:22.937Z,97312.38
2023-04-18T21:37:27.449Z,97301.00
2023-04-18T21:40:33.236Z,97301.91
2023-04-18T21:43:37.816Z,97298.63
2023-04-18T21:46:42.264Z,97302.97
2023-04-18T21:49:46.750Z,97302.44
2023-04-18T21:52:51.264Z,97301.34
2023-04-18T21:55:55.687Z,97290.69
2023-04-18T21:59:00.265Z,97298.16
2023-04-18T22:02:05.490Z,97289.06
2023-04-18T22:05:13.848Z,97289.22
2023-04-18T22:08:19.994Z,97286.59
2023-04-18T22:11:24.610Z,97290.06
2023-04-18T22:14:29.233Z,97281.19
2023-04-18T22:17:34.922Z,97281.09
2023-04-18T22:20:41.429Z,97286.31
2023-04-18T22:23:47.001Z,97277.66
2023-04-18T22:26:52.299Z,97284.53
2023-04-18T22:29:56.852Z,97280.66
2023-04-18T22:33:01.488Z,97278.34
2023-04-18T22:36:06.739Z,97277.69
2023-04-18T22:39:12.066Z,97276.38
2023-04-18T22:42:16.500Z,97283.28
2023-04-18T22:45:21.115Z,97282.19
2023-04-18T22:48:25.780Z,97272.44
2023-04-18T22:51:30.214Z,97285.13
2023-04-18T22:54:39.599Z,97286.38
2023-04-18T22:57:44.090Z,97280.88
2023-04-18T23:00:48.568Z,97269.66
2023-04-18T23:03:53.327Z,97279.56
2023-04-18T23:06:58.041Z,97271.34
2023-04-18T23:10:05.404Z,97276.28
2023-04-18T23:13:09.922Z,97266.69
2023-04-18T23:16:14.580Z,97264.06
2023-04-18T23:19:19.279Z,97261.22
2023-04-18T23:22:24.166Z,97256.97
2023-04-18T23:25:28.707Z,97256.81
2023-04-18T23:28:36.182Z,97231.84
2023-04-18T23:31:40.941Z,97257.22
2023-04-18T23:34:46.034Z,97252.97
2023-04-18T23:37:50.518Z,97251.94
2023-04-18T23:40:55.062Z,97243.88
2023-04-18T23:43:59.716Z,97224.75
2023-04-18T23:47:04.259Z,97239.66
2023-04-18T23:50:09.429Z,97242.47
2023-04-18T23:53:13.990Z,97238.81
2023-04-18T23:56:18.475Z,97238.31
2023-04-18T23:59:22.999Z,97230.75
